Hicksville, Virginia
Current Conditions -  °F | °C
As of 3:52 PM on Thursday 18 Dec 2014 (Local Time) from KBLF Reporting Station
Overcast Overcast  
Wind Chill: 31°   Ceiling: 6500
Heat Index: 37°   Visibility: 10mi
Dew Point: 20°   Wind: 8mph
Humidity: 50%   Direction: 280°W
Pressure: 30.05"   Gusts: NA
Location:  37.1593°N, 81.1986°W
Report Text: KBLF 182052Z AUTO 28007KT 10SM OVC065 03/M07 A3005 RMK AO2 SLP192 T00281067 55007
Loading
Personal Weather Stations






























Interactive Weather Map New forecast layout! Learn more

10-Day Weather Forecast

Advertisements
Track Severe Weather on mobile